sensor_id;sensor_type;location;lat;lon;timestamp;P1;durP1;ratioP1;P2;durP2;ratioP2
34960;SDS011;30789;52.030;7.110;2022-11-20T00:01:22;75.72;;;24.75;;
34960;SDS011;30789;52.030;7.110;2022-11-20T00:03:50;35.10;;;13.73;;
34960;SDS011;30789;52.030;7.110;2022-11-20T00:06:18;27.63;;;11.18;;
34960;SDS011;30789;52.030;7.110;2022-11-20T00:08:45;22.48;;;9.90;;
34960;SDS011;30789;52.030;7.110;2022-11-20T00:11:13;11.93;;;7.35;;
34960;SDS011;30789;52.030;7.110;2022-11-20T00:13:41;12.23;;;6.72;;
34960;SDS011;30789;52.030;7.110;2022-11-20T00:16:08;13.10;;;7.68;;
34960;SDS011;30789;52.030;7.110;2022-11-20T00:18:37;9.00;;;6.32;;
34960;SDS011;30789;52.030;7.110;2022-11-20T00:21:04;14.77;;;7.75;;
34960;SDS011;30789;52.030;7.110;2022-11-20T00:23:32;12.65;;;7.10;;
34960;SDS011;30789;52.030;7.110;2022-11-20T00:26:01;12.90;;;6.63;;
34960;SDS011;30789;52.030;7.110;2022-11-20T00:28:29;19.38;;;7.90;;
34960;SDS011;30789;52.030;7.110;2022-11-20T00:31:00;13.20;;;8.55;;
34960;SDS011;30789;52.030;7.110;2022-11-20T00:33:28;17.48;;;7.95;;
34960;SDS011;30789;52.030;7.110;2022-11-20T00:35:59;17.33;;;8.23;;
34960;SDS011;30789;52.030;7.110;2022-11-20T00:38:27;12.45;;;7.78;;
34960;SDS011;30789;52.030;7.110;2022-11-20T00:40:54;19.85;;;7.88;;
34960;SDS011;30789;52.030;7.110;2022-11-20T00:43:22;14.68;;;7.70;;
34960;SDS011;30789;52.030;7.110;2022-11-20T00:45:48;15.98;;;8.82;;
34960;SDS011;30789;52.030;7.110;2022-11-20T00:48:15;20.17;;;8.38;;
34960;SDS011;30789;52.030;7.110;2022-11-20T00:50:41;12.30;;;7.10;;
34960;SDS011;30789;52.030;7.110;2022-11-20T00:53:09;15.25;;;8.05;;
34960;SDS011;30789;52.030;7.110;2022-11-20T00:55:35;14.07;;;8.10;;
34960;SDS011;30789;52.030;7.110;2022-11-20T00:58:02;17.25;;;8.05;;
34960;SDS011;30789;52.030;7.110;2022-11-20T01:00:28;13.07;;;7.40;;
34960;SDS011;30789;52.030;7.110;2022-11-20T01:02:55;15.88;;;7.85;;
34960;SDS011;30789;52.030;7.110;2022-11-20T01:05:21;17.83;;;7.63;;
34960;SDS011;30789;52.030;7.110;2022-11-20T01:07:48;14.00;;;7.75;;
34960;SDS011;30789;52.030;7.110;2022-11-20T01:10:16;13.10;;;6.63;;
34960;SDS011;30789;52.030;7.110;2022-11-20T01:12:42;17.33;;;7.45;;
34960;SDS011;30789;52.030;7.110;2022-11-20T01:15:29;8.02;;;5.43;;
34960;SDS011;30789;52.030;7.110;2022-11-20T01:17:55;11.55;;;5.55;;
34960;SDS011;30789;52.030;7.110;2022-11-20T01:20:22;9.48;;;6.38;;
34960;SDS011;30789;52.030;7.110;2022-11-20T01:22:48;8.80;;;5.18;;
34960;SDS011;30789;52.030;7.110;2022-11-20T01:25:16;9.10;;;5.55;;
34960;SDS011;30789;52.030;7.110;2022-11-20T01:27:43;8.95;;;5.63;;
34960;SDS011;30789;52.030;7.110;2022-11-20T01:30:09;10.23;;;6.35;;
34960;SDS011;30789;52.030;7.110;2022-11-20T01:32:36;15.05;;;7.10;;
34960;SDS011;30789;52.030;7.110;2022-11-20T01:35:03;11.18;;;5.47;;
34960;SDS011;30789;52.030;7.110;2022-11-20T01:37:30;8.40;;;5.05;;
34960;SDS011;30789;52.030;7.110;2022-11-20T01:39:57;8.20;;;4.90;;
34960;SDS011;30789;52.030;7.110;2022-11-20T01:42:24;13.85;;;5.70;;
34960;SDS011;30789;52.030;7.110;2022-11-20T01:48:08;11.25;;;6.13;;
34960;SDS011;30789;52.030;7.110;2022-11-20T01:50:35;7.78;;;5.57;;
34960;SDS011;30789;52.030;7.110;2022-11-20T01:53:02;8.80;;;5.43;;
34960;SDS011;30789;52.030;7.110;2022-11-20T01:55:34;9.75;;;4.75;;
34960;SDS011;30789;52.030;7.110;2022-11-20T01:58:06;9.57;;;5.47;;
34960;SDS011;30789;52.030;7.110;2022-11-20T02:00:33;7.32;;;5.47;;
34960;SDS011;30789;52.030;7.110;2022-11-20T02:03:00;10.45;;;5.90;;
34960;SDS011;30789;52.030;7.110;2022-11-20T02:05:31;11.68;;;4.85;;
34960;SDS011;30789;52.030;7.110;2022-11-20T02:08:01;9.02;;;4.88;;
34960;SDS011;30789;52.030;7.110;2022-11-20T02:10:30;9.15;;;5.60;;
34960;SDS011;30789;52.030;7.110;2022-11-20T02:12:58;10.18;;;5.43;;
34960;SDS011;30789;52.030;7.110;2022-11-20T02:15:43;8.93;;;4.93;;
34960;SDS011;30789;52.030;7.110;2022-11-20T02:18:11;10.27;;;5.40;;
34960;SDS011;30789;52.030;7.110;2022-11-20T02:20:40;10.00;;;5.82;;
34960;SDS011;30789;52.030;7.110;2022-11-20T02:23:08;8.45;;;5.30;;
34960;SDS011;30789;52.030;7.110;2022-11-20T02:25:40;10.25;;;5.32;;
34960;SDS011;30789;52.030;7.110;2022-11-20T02:28:07;10.88;;;5.93;;
34960;SDS011;30789;52.030;7.110;2022-11-20T02:30:34;7.85;;;5.18;;
34960;SDS011;30789;52.030;7.110;2022-11-20T02:33:01;10.98;;;5.20;;
34960;SDS011;30789;52.030;7.110;2022-11-20T02:35:43;9.35;;;4.63;;
34960;SDS011;30789;52.030;7.110;2022-11-20T02:38:11;10.40;;;5.30;;
34960;SDS011;30789;52.030;7.110;2022-11-20T02:40:40;9.65;;;5.22;;
34960;SDS011;30789;52.030;7.110;2022-11-20T02:43:07;8.77;;;4.75;;
34960;SDS011;30789;52.030;7.110;2022-11-20T02:45:34;10.00;;;5.05;;
34960;SDS011;30789;52.030;7.110;2022-11-20T02:48:01;10.23;;;4.82;;
34960;SDS011;30789;52.030;7.110;2022-11-20T02:50:28;8.20;;;5.15;;
34960;SDS011;30789;52.030;7.110;2022-11-20T02:52:54;11.63;;;5.07;;
34960;SDS011;30789;52.030;7.110;2022-11-20T02:55:21;8.55;;;4.53;;
34960;SDS011;30789;52.030;7.110;2022-11-20T02:57:49;7.85;;;4.72;;
34960;SDS011;30789;52.030;7.110;2022-11-20T03:00:15;7.22;;;4.20;;
34960;SDS011;30789;52.030;7.110;2022-11-20T03:02:42;8.60;;;5.28;;
34960;SDS011;30789;52.030;7.110;2022-11-20T03:05:08;11.20;;;5.28;;
34960;SDS011;30789;52.030;7.110;2022-11-20T03:07:35;9.32;;;4.80;;
34960;SDS011;30789;52.030;7.110;2022-11-20T03:10:01;10.07;;;4.65;;
34960;SDS011;30789;52.030;7.110;2022-11-20T03:12:28;8.30;;;5.20;;
34960;SDS011;30789;52.030;7.110;2022-11-20T03:14:55;9.25;;;5.00;;
34960;SDS011;30789;52.030;7.110;2022-11-20T03:17:22;9.48;;;5.22;;
34960;SDS011;30789;52.030;7.110;2022-11-20T03:19:48;8.73;;;5.95;;
34960;SDS011;30789;52.030;7.110;2022-11-20T03:22:15;6.90;;;4.43;;
34960;SDS011;30789;52.030;7.110;2022-11-20T03:24:41;10.52;;;5.72;;
34960;SDS011;30789;52.030;7.110;2022-11-20T03:27:08;8.82;;;5.28;;
34960;SDS011;30789;52.030;7.110;2022-11-20T03:29:34;10.65;;;5.82;;
34960;SDS011;30789;52.030;7.110;2022-11-20T03:32:02;10.68;;;5.18;;
34960;SDS011;30789;52.030;7.110;2022-11-20T03:34:29;9.38;;;5.18;;
34960;SDS011;30789;52.030;7.110;2022-11-20T03:36:55;10.73;;;6.13;;
34960;SDS011;30789;52.030;7.110;2022-11-20T03:39:22;11.45;;;5.28;;
34960;SDS011;30789;52.030;7.110;2022-11-20T03:41:48;11.88;;;6.28;;
34960;SDS011;30789;52.030;7.110;2022-11-20T03:44:15;9.00;;;5.25;;
34960;SDS011;30789;52.030;7.110;2022-11-20T03:46:41;10.95;;;5.88;;
34960;SDS011;30789;52.030;7.110;2022-11-20T03:49:09;11.98;;;5.45;;
34960;SDS011;30789;52.030;7.110;2022-11-20T03:51:35;9.80;;;5.85;;
34960;SDS011;30789;52.030;7.110;2022-11-20T03:54:03;10.30;;;5.72;;
34960;SDS011;30789;52.030;7.110;2022-11-20T03:56:31;10.38;;;5.85;;
34960;SDS011;30789;52.030;7.110;2022-11-20T03:58:59;8.13;;;4.65;;
34960;SDS011;30789;52.030;7.110;2022-11-20T04:01:27;8.45;;;5.95;;
34960;SDS011;30789;52.030;7.110;2022-11-20T04:03:56;11.75;;;6.00;;
34960;SDS011;30789;52.030;7.110;2022-11-20T04:06:24;8.75;;;5.22;;
34960;SDS011;30789;52.030;7.110;2022-11-20T04:08:53;8.55;;;4.68;;
34960;SDS011;30789;52.030;7.110;2022-11-20T04:11:21;11.93;;;6.00;;
34960;SDS011;30789;52.030;7.110;2022-11-20T04:13:50;8.48;;;5.25;;
34960;SDS011;30789;52.030;7.110;2022-11-20T04:16:17;9.93;;;5.57;;
34960;SDS011;30789;52.030;7.110;2022-11-20T04:18:44;10.27;;;5.03;;
34960;SDS011;30789;52.030;7.110;2022-11-20T04:21:11;9.55;;;4.97;;
34960;SDS011;30789;52.030;7.110;2022-11-20T04:23:39;9.88;;;5.47;;
34960;SDS011;30789;52.030;7.110;2022-11-20T04:26:07;8.60;;;5.05;;
34960;SDS011;30789;52.030;7.110;2022-11-20T04:28:35;10.48;;;5.63;;
34960;SDS011;30789;52.030;7.110;2022-11-20T04:31:03;9.30;;;5.18;;
34960;SDS011;30789;52.030;7.110;2022-11-20T04:33:30;9.68;;;5.15;;
34960;SDS011;30789;52.030;7.110;2022-11-20T04:35:59;8.95;;;5.93;;
34960;SDS011;30789;52.030;7.110;2022-11-20T04:38:27;9.70;;;5.10;;
34960;SDS011;30789;52.030;7.110;2022-11-20T04:40:57;10.60;;;5.63;;
34960;SDS011;30789;52.030;7.110;2022-11-20T04:43:24;9.20;;;5.50;;
34960;SDS011;30789;52.030;7.110;2022-11-20T04:45:51;10.00;;;5.95;;
34960;SDS011;30789;52.030;7.110;2022-11-20T04:48:17;9.45;;;5.13;;
34960;SDS011;30789;52.030;7.110;2022-11-20T04:50:44;8.23;;;5.30;;
34960;SDS011;30789;52.030;7.110;2022-11-20T04:53:10;10.90;;;6.07;;
34960;SDS011;30789;52.030;7.110;2022-11-20T04:55:37;9.70;;;5.80;;
34960;SDS011;30789;52.030;7.110;2022-11-20T04:58:04;7.20;;;5.05;;
34960;SDS011;30789;52.030;7.110;2022-11-20T05:00:31;7.90;;;5.20;;
34960;SDS011;30789;52.030;7.110;2022-11-20T05:02:57;9.10;;;5.63;;
34960;SDS011;30789;52.030;7.110;2022-11-20T05:05:24;10.88;;;6.55;;
34960;SDS011;30789;52.030;7.110;2022-11-20T05:07:50;7.75;;;4.70;;
34960;SDS011;30789;52.030;7.110;2022-11-20T05:10:17;7.38;;;4.57;;
34960;SDS011;30789;52.030;7.110;2022-11-20T05:12:43;8.90;;;5.35;;
34960;SDS011;30789;52.030;7.110;2022-11-20T05:15:11;8.23;;;5.18;;
34960;SDS011;30789;52.030;7.110;2022-11-20T05:17:37;8.68;;;4.82;;
34960;SDS011;30789;52.030;7.110;2022-11-20T05:20:04;11.52;;;6.00;;
34960;SDS011;30789;52.030;7.110;2022-11-20T05:22:31;11.95;;;5.60;;
34960;SDS011;30789;52.030;7.110;2022-11-20T05:24:58;10.73;;;5.68;;
34960;SDS011;30789;52.030;7.110;2022-11-20T05:27:24;10.50;;;6.25;;
34960;SDS011;30789;52.030;7.110;2022-11-20T05:29:50;10.20;;;5.85;;
34960;SDS011;30789;52.030;7.110;2022-11-20T05:32:18;9.70;;;5.95;;
34960;SDS011;30789;52.030;7.110;2022-11-20T05:34:45;7.68;;;4.95;;
34960;SDS011;30789;52.030;7.110;2022-11-20T05:37:11;8.13;;;5.05;;
34960;SDS011;30789;52.030;7.110;2022-11-20T05:39:37;10.32;;;6.03;;
34960;SDS011;30789;52.030;7.110;2022-11-20T05:42:04;11.00;;;5.82;;
34960;SDS011;30789;52.030;7.110;2022-11-20T05:44:48;7.30;;;4.90;;
34960;SDS011;30789;52.030;7.110;2022-11-20T05:47:14;10.55;;;5.60;;
34960;SDS011;30789;52.030;7.110;2022-11-20T05:49:42;14.40;;;6.00;;
34960;SDS011;30789;52.030;7.110;2022-11-20T05:52:08;11.30;;;5.78;;
34960;SDS011;30789;52.030;7.110;2022-11-20T05:54:35;8.98;;;5.65;;
34960;SDS011;30789;52.030;7.110;2022-11-20T05:57:01;9.90;;;5.68;;
34960;SDS011;30789;52.030;7.110;2022-11-20T05:59:28;7.53;;;5.25;;
34960;SDS011;30789;52.030;7.110;2022-11-20T06:01:54;8.95;;;5.53;;
34960;SDS011;30789;52.030;7.110;2022-11-20T06:04:21;8.13;;;5.43;;
34960;SDS011;30789;52.030;7.110;2022-11-20T06:06:48;10.35;;;5.25;;
34960;SDS011;30789;52.030;7.110;2022-11-20T06:09:15;8.23;;;5.38;;
34960;SDS011;30789;52.030;7.110;2022-11-20T06:11:41;12.20;;;6.18;;
34960;SDS011;30789;52.030;7.110;2022-11-20T06:14:08;10.48;;;5.35;;
34960;SDS011;30789;52.030;7.110;2022-11-20T06:16:34;9.30;;;5.57;;
34960;SDS011;30789;52.030;7.110;2022-11-20T06:19:01;7.57;;;4.55;;
34960;SDS011;30789;52.030;7.110;2022-11-20T06:21:27;9.77;;;6.28;;
34960;SDS011;30789;52.030;7.110;2022-11-20T06:23:55;10.65;;;5.40;;
34960;SDS011;30789;52.030;7.110;2022-11-20T06:26:22;10.48;;;5.63;;
34960;SDS011;30789;52.030;7.110;2022-11-20T06:28:50;12.63;;;5.60;;
34960;SDS011;30789;52.030;7.110;2022-11-20T06:31:19;8.95;;;5.43;;
34960;SDS011;30789;52.030;7.110;2022-11-20T06:33:46;12.23;;;4.95;;
34960;SDS011;30789;52.030;7.110;2022-11-20T06:36:13;11.82;;;6.20;;
34960;SDS011;30789;52.030;7.110;2022-11-20T06:38:41;10.50;;;5.47;;
34960;SDS011;30789;52.030;7.110;2022-11-20T06:41:10;12.18;;;6.40;;
34960;SDS011;30789;52.030;7.110;2022-11-20T06:43:38;12.32;;;7.18;;
34960;SDS011;30789;52.030;7.110;2022-11-20T06:46:04;10.50;;;5.68;;
34960;SDS011;30789;52.030;7.110;2022-11-20T06:48:31;13.10;;;6.50;;
34960;SDS011;30789;52.030;7.110;2022-11-20T06:50:58;9.13;;;5.68;;
34960;SDS011;30789;52.030;7.110;2022-11-20T06:53:24;10.18;;;5.47;;
34960;SDS011;30789;52.030;7.110;2022-11-20T06:55:51;10.50;;;5.57;;
34960;SDS011;30789;52.030;7.110;2022-11-20T06:58:19;12.60;;;6.28;;
34960;SDS011;30789;52.030;7.110;2022-11-20T07:00:46;9.63;;;6.97;;
34960;SDS011;30789;52.030;7.110;2022-11-20T07:03:12;18.63;;;7.88;;
34960;SDS011;30789;52.030;7.110;2022-11-20T07:05:39;26.63;;;10.80;;
34960;SDS011;30789;52.030;7.110;2022-11-20T07:08:06;22.60;;;9.50;;
34960;SDS011;30789;52.030;7.110;2022-11-20T07:10:32;17.08;;;8.38;;
34960;SDS011;30789;52.030;7.110;2022-11-20T07:12:59;14.27;;;6.90;;
34960;SDS011;30789;52.030;7.110;2022-11-20T07:15:27;19.15;;;8.35;;
34960;SDS011;30789;52.030;7.110;2022-11-20T07:17:54;19.27;;;10.43;;
34960;SDS011;30789;52.030;7.110;2022-11-20T07:20:20;17.50;;;8.75;;
34960;SDS011;30789;52.030;7.110;2022-11-20T07:22:47;19.60;;;9.10;;
34960;SDS011;30789;52.030;7.110;2022-11-20T07:25:19;13.77;;;7.97;;
34960;SDS011;30789;52.030;7.110;2022-11-20T07:27:45;15.90;;;7.60;;
34960;SDS011;30789;52.030;7.110;2022-11-20T07:30:12;12.80;;;8.05;;
34960;SDS011;30789;52.030;7.110;2022-11-20T07:32:41;11.25;;;6.70;;
34960;SDS011;30789;52.030;7.110;2022-11-20T07:35:07;13.55;;;7.95;;
34960;SDS011;30789;52.030;7.110;2022-11-20T07:37:35;12.85;;;8.38;;
34960;SDS011;30789;52.030;7.110;2022-11-20T07:40:02;19.27;;;9.95;;
34960;SDS011;30789;52.030;7.110;2022-11-20T07:42:29;18.00;;;9.63;;
34960;SDS011;30789;52.030;7.110;2022-11-20T07:44:55;18.08;;;9.15;;
34960;SDS011;30789;52.030;7.110;2022-11-20T07:47:22;18.52;;;10.20;;
34960;SDS011;30789;52.030;7.110;2022-11-20T07:49:49;13.82;;;9.40;;
34960;SDS011;30789;52.030;7.110;2022-11-20T07:52:16;15.32;;;9.18;;
34960;SDS011;30789;52.030;7.110;2022-11-20T07:54:42;17.00;;;9.05;;
34960;SDS011;30789;52.030;7.110;2022-11-20T07:57:09;16.40;;;10.60;;
34960;SDS011;30789;52.030;7.110;2022-11-20T07:59:35;18.17;;;11.65;;
34960;SDS011;30789;52.030;7.110;2022-11-20T08:02:02;17.73;;;9.98;;
34960;SDS011;30789;52.030;7.110;2022-11-20T08:04:28;17.08;;;11.18;;
34960;SDS011;30789;52.030;7.110;2022-11-20T08:06:56;19.08;;;11.57;;
34960;SDS011;30789;52.030;7.110;2022-11-20T08:09:22;24.67;;;13.10;;
34960;SDS011;30789;52.030;7.110;2022-11-20T08:11:49;18.70;;;10.45;;
34960;SDS011;30789;52.030;7.110;2022-11-20T08:14:33;15.77;;;9.07;;
34960;SDS011;30789;52.030;7.110;2022-11-20T08:16:59;20.80;;;10.57;;
34960;SDS011;30789;52.030;7.110;2022-11-20T08:19:26;17.90;;;10.00;;
34960;SDS011;30789;52.030;7.110;2022-11-20T08:21:52;19.25;;;10.73;;
34960;SDS011;30789;52.030;7.110;2022-11-20T08:24:20;18.80;;;11.05;;
34960;SDS011;30789;52.030;7.110;2022-11-20T08:26:46;20.33;;;10.80;;
34960;SDS011;30789;52.030;7.110;2022-11-20T08:29:13;20.63;;;12.38;;
34960;SDS011;30789;52.030;7.110;2022-11-20T08:31:39;20.00;;;11.85;;
34960;SDS011;30789;52.030;7.110;2022-11-20T08:34:06;15.90;;;9.57;;
34960;SDS011;30789;52.030;7.110;2022-11-20T08:36:32;19.90;;;10.30;;
34960;SDS011;30789;52.030;7.110;2022-11-20T08:38:59;22.27;;;10.70;;
34960;SDS011;30789;52.030;7.110;2022-11-20T08:41:28;19.50;;;9.88;;
34960;SDS011;30789;52.030;7.110;2022-11-20T08:43:58;18.10;;;9.50;;
34960;SDS011;30789;52.030;7.110;2022-11-20T08:46:27;15.63;;;9.38;;
34960;SDS011;30789;52.030;7.110;2022-11-20T08:48:58;21.73;;;10.45;;
34960;SDS011;30789;52.030;7.110;2022-11-20T08:51:24;19.38;;;10.77;;
34960;SDS011;30789;52.030;7.110;2022-11-20T08:53:51;20.17;;;11.13;;
34960;SDS011;30789;52.030;7.110;2022-11-20T08:56:17;19.20;;;10.25;;
34960;SDS011;30789;52.030;7.110;2022-11-20T08:58:45;21.42;;;10.85;;
34960;SDS011;30789;52.030;7.110;2022-11-20T09:01:11;19.30;;;10.02;;
34960;SDS011;30789;52.030;7.110;2022-11-20T09:03:38;19.27;;;11.00;;
34960;SDS011;30789;52.030;7.110;2022-11-20T09:06:05;18.80;;;10.73;;
34960;SDS011;30789;52.030;7.110;2022-11-20T09:08:33;21.60;;;11.63;;
34960;SDS011;30789;52.030;7.110;2022-11-20T09:11:00;19.63;;;12.25;;
34960;SDS011;30789;52.030;7.110;2022-11-20T09:13:28;19.17;;;10.90;;
34960;SDS011;30789;52.030;7.110;2022-11-20T09:15:56;22.80;;;10.95;;
34960;SDS011;30789;52.030;7.110;2022-11-20T09:18:24;28.15;;;12.38;;
34960;SDS011;30789;52.030;7.110;2022-11-20T09:20:51;22.33;;;11.15;;
34960;SDS011;30789;52.030;7.110;2022-11-20T09:23:18;22.77;;;11.40;;
34960;SDS011;30789;52.030;7.110;2022-11-20T09:25:44;22.98;;;11.88;;
34960;SDS011;30789;52.030;7.110;2022-11-20T09:28:11;25.75;;;13.27;;
34960;SDS011;30789;52.030;7.110;2022-11-20T09:30:38;25.80;;;12.57;;
34960;SDS011;30789;52.030;7.110;2022-11-20T09:33:06;28.85;;;13.00;;
34960;SDS011;30789;52.030;7.110;2022-11-20T09:35:33;25.42;;;12.63;;
34960;SDS011;30789;52.030;7.110;2022-11-20T09:38:03;21.55;;;12.23;;
34960;SDS011;30789;52.030;7.110;2022-11-20T09:40:30;16.55;;;7.95;;
34960;SDS011;30789;52.030;7.110;2022-11-20T09:42:58;26.80;;;14.18;;
34960;SDS011;30789;52.030;7.110;2022-11-20T09:45:33;28.80;;;13.65;;
34960;SDS011;30789;52.030;7.110;2022-11-20T09:48:18;25.80;;;13.30;;
34960;SDS011;30789;52.030;7.110;2022-11-20T09:50:55;26.73;;;12.65;;
34960;SDS011;30789;52.030;7.110;2022-11-20T09:53:31;26.90;;;12.23;;
34960;SDS011;30789;52.030;7.110;2022-11-20T09:56:08;21.77;;;12.48;;
34960;SDS011;30789;52.030;7.110;2022-11-20T09:58:38;24.80;;;12.15;;
34960;SDS011;30789;52.030;7.110;2022-11-20T10:01:10;23.45;;;12.48;;
34960;SDS011;30789;52.030;7.110;2022-11-20T10:03:41;23.92;;;11.05;;
34960;SDS011;30789;52.030;7.110;2022-11-20T10:06:21;28.45;;;14.10;;
34960;SDS011;30789;52.030;7.110;2022-11-20T10:08:55;29.40;;;14.02;;
34960;SDS011;30789;52.030;7.110;2022-11-20T10:14:01;25.80;;;13.15;;
34960;SDS011;30789;52.030;7.110;2022-11-20T10:16:39;29.27;;;14.55;;
34960;SDS011;30789;52.030;7.110;2022-11-20T10:19:28;30.98;;;14.63;;
34960;SDS011;30789;52.030;7.110;2022-11-20T10:22:30;24.73;;;13.70;;
34960;SDS011;30789;52.030;7.110;2022-11-20T10:25:08;31.38;;;14.75;;
34960;SDS011;30789;52.030;7.110;2022-11-20T10:27:44;31.42;;;15.38;;
34960;SDS011;30789;52.030;7.110;2022-11-20T10:30:22;31.10;;;15.90;;
34960;SDS011;30789;52.030;7.110;2022-11-20T10:32:51;31.95;;;15.60;;
34960;SDS011;30789;52.030;7.110;2022-11-20T10:35:23;34.80;;;16.27;;
34960;SDS011;30789;52.030;7.110;2022-11-20T10:37:56;31.35;;;15.15;;
34960;SDS011;30789;52.030;7.110;2022-11-20T10:40:27;28.52;;;15.20;;
34960;SDS011;30789;52.030;7.110;2022-11-20T10:42:59;32.15;;;14.57;;
34960;SDS011;30789;52.030;7.110;2022-11-20T10:45:31;23.10;;;14.27;;
34960;SDS011;30789;52.030;7.110;2022-11-20T10:48:10;29.05;;;15.00;;
34960;SDS011;30789;52.030;7.110;2022-11-20T10:50:44;29.67;;;15.23;;
34960;SDS011;30789;52.030;7.110;2022-11-20T10:53:21;22.00;;;13.57;;
34960;SDS011;30789;52.030;7.110;2022-11-20T10:56:03;23.67;;;13.45;;
34960;SDS011;30789;52.030;7.110;2022-11-20T10:58:37;27.02;;;13.73;;
34960;SDS011;30789;52.030;7.110;2022-11-20T11:01:13;30.20;;;16.50;;
34960;SDS011;30789;52.030;7.110;2022-11-20T11:03:41;24.30;;;15.10;;
34960;SDS011;30789;52.030;7.110;2022-11-20T11:06:12;64.63;;;30.55;;
34960;SDS011;30789;52.030;7.110;2022-11-20T11:08:45;47.85;;;22.17;;
34960;SDS011;30789;52.030;7.110;2022-11-20T11:11:18;28.50;;;16.23;;
34960;SDS011;30789;52.030;7.110;2022-11-20T11:13:47;31.38;;;17.50;;
34960;SDS011;30789;52.030;7.110;2022-11-20T11:16:20;51.92;;;27.23;;
34960;SDS011;30789;52.030;7.110;2022-11-20T11:18:48;31.98;;;17.58;;
34960;SDS011;30789;52.030;7.110;2022-11-20T11:21:21;33.90;;;17.20;;
34960;SDS011;30789;52.030;7.110;2022-11-20T11:23:56;26.42;;;14.23;;
34960;SDS011;30789;52.030;7.110;2022-11-20T11:26:25;26.40;;;14.70;;
34960;SDS011;30789;52.030;7.110;2022-11-20T11:28:55;29.08;;;15.38;;
34960;SDS011;30789;52.030;7.110;2022-11-20T11:31:23;26.73;;;14.43;;
34960;SDS011;30789;52.030;7.110;2022-11-20T11:33:51;35.95;;;15.70;;
34960;SDS011;30789;52.030;7.110;2022-11-20T11:36:17;25.88;;;14.38;;
34960;SDS011;30789;52.030;7.110;2022-11-20T11:38:50;21.08;;;12.60;;
34960;SDS011;30789;52.030;7.110;2022-11-20T11:41:19;30.70;;;15.43;;
34960;SDS011;30789;52.030;7.110;2022-11-20T11:43:50;25.67;;;14.90;;
34960;SDS011;30789;52.030;7.110;2022-11-20T11:46:36;22.05;;;13.38;;
34960;SDS011;30789;52.030;7.110;2022-11-20T11:49:11;23.85;;;13.65;;
34960;SDS011;30789;52.030;7.110;2022-11-20T11:51:45;22.52;;;12.35;;
34960;SDS011;30789;52.030;7.110;2022-11-20T11:54:23;19.55;;;12.57;;
34960;SDS011;30789;52.030;7.110;2022-11-20T11:56:52;25.08;;;12.80;;
34960;SDS011;30789;52.030;7.110;2022-11-20T11:59:22;17.70;;;11.73;;
34960;SDS011;30789;52.030;7.110;2022-11-20T12:01:53;24.83;;;13.13;;
34960;SDS011;30789;52.030;7.110;2022-11-20T12:04:36;22.30;;;12.25;;
34960;SDS011;30789;52.030;7.110;2022-11-20T12:07:12;21.58;;;11.98;;
34960;SDS011;30789;52.030;7.110;2022-11-20T12:09:47;19.70;;;12.00;;
34960;SDS011;30789;52.030;7.110;2022-11-20T12:12:18;20.10;;;11.65;;
34960;SDS011;30789;52.030;7.110;2022-11-20T12:14:48;17.77;;;10.93;;
34960;SDS011;30789;52.030;7.110;2022-11-20T12:17:18;14.02;;;10.05;;
34960;SDS011;30789;52.030;7.110;2022-11-20T12:19:45;15.77;;;10.10;;
34960;SDS011;30789;52.030;7.110;2022-11-20T12:22:16;16.73;;;10.90;;
34960;SDS011;30789;52.030;7.110;2022-11-20T12:24:55;32.67;;;17.33;;
34960;SDS011;30789;52.030;7.110;2022-11-20T12:27:43;20.38;;;12.40;;
34960;SDS011;30789;52.030;7.110;2022-11-20T12:30:27;14.55;;;9.65;;
34960;SDS011;30789;52.030;7.110;2022-11-20T12:33:07;15.18;;;9.38;;
34960;SDS011;30789;52.030;7.110;2022-11-20T12:35:54;14.82;;;9.00;;
34960;SDS011;30789;52.030;7.110;2022-11-20T12:38:48;17.73;;;9.88;;
34960;SDS011;30789;52.030;7.110;2022-11-20T12:41:27;18.20;;;10.35;;
34960;SDS011;30789;52.030;7.110;2022-11-20T12:44:31;17.75;;;10.43;;
34960;SDS011;30789;52.030;7.110;2022-11-20T12:47:35;20.42;;;11.82;;
34960;SDS011;30789;52.030;7.110;2022-11-20T12:50:14;17.77;;;11.07;;
34960;SDS011;30789;52.030;7.110;2022-11-20T12:52:53;17.38;;;12.20;;
34960;SDS011;30789;52.030;7.110;2022-11-20T12:55:27;19.10;;;11.90;;
34960;SDS011;30789;52.030;7.110;2022-11-20T12:58:00;21.83;;;12.93;;
34960;SDS011;30789;52.030;7.110;2022-11-20T13:00:35;22.10;;;12.15;;
34960;SDS011;30789;52.030;7.110;2022-11-20T13:06:13;20.27;;;11.65;;
34960;SDS011;30789;52.030;7.110;2022-11-20T13:08:43;16.30;;;11.18;;
34960;SDS011;30789;52.030;7.110;2022-11-20T13:11:16;19.13;;;10.88;;
34960;SDS011;30789;52.030;7.110;2022-11-20T13:16:45;54.42;;;24.33;;
34960;SDS011;30789;52.030;7.110;2022-11-20T13:19:16;57.42;;;30.25;;
34960;SDS011;30789;52.030;7.110;2022-11-20T13:21:43;34.75;;;17.58;;
34960;SDS011;30789;52.030;7.110;2022-11-20T13:24:20;103.18;;;44.50;;
34960;SDS011;30789;52.030;7.110;2022-11-20T13:27:00;24.67;;;15.43;;
34960;SDS011;30789;52.030;7.110;2022-11-20T13:29:31;20.70;;;12.27;;
34960;SDS011;30789;52.030;7.110;2022-11-20T13:32:05;22.55;;;12.02;;
34960;SDS011;30789;52.030;7.110;2022-11-20T13:34:33;22.58;;;12.48;;
34960;SDS011;30789;52.030;7.110;2022-11-20T13:37:01;22.77;;;12.25;;
34960;SDS011;30789;52.030;7.110;2022-11-20T13:39:30;20.92;;;12.93;;
34960;SDS011;30789;52.030;7.110;2022-11-20T13:41:58;21.77;;;12.00;;
34960;SDS011;30789;52.030;7.110;2022-11-20T13:44:29;22.48;;;13.13;;
34960;SDS011;30789;52.030;7.110;2022-11-20T13:47:00;23.58;;;13.40;;
34960;SDS011;30789;52.030;7.110;2022-11-20T13:49:27;23.63;;;13.32;;
34960;SDS011;30789;52.030;7.110;2022-11-20T13:51:59;21.57;;;13.63;;
34960;SDS011;30789;52.030;7.110;2022-11-20T13:54:47;25.40;;;14.05;;
34960;SDS011;30789;52.030;7.110;2022-11-20T13:57:40;24.25;;;13.85;;
34960;SDS011;30789;52.030;7.110;2022-11-20T14:00:33;25.75;;;14.02;;
34960;SDS011;30789;52.030;7.110;2022-11-20T14:03:12;22.65;;;13.32;;
34960;SDS011;30789;52.030;7.110;2022-11-20T14:05:46;25.38;;;13.10;;
34960;SDS011;30789;52.030;7.110;2022-11-20T14:08:21;23.25;;;13.10;;
34960;SDS011;30789;52.030;7.110;2022-11-20T14:11:01;22.05;;;12.65;;
34960;SDS011;30789;52.030;7.110;2022-11-20T14:13:30;23.42;;;13.10;;
34960;SDS011;30789;52.030;7.110;2022-11-20T14:15:56;23.15;;;13.43;;
34960;SDS011;30789;52.030;7.110;2022-11-20T14:18:24;25.95;;;14.20;;
34960;SDS011;30789;52.030;7.110;2022-11-20T14:20:52;23.52;;;14.63;;
34960;SDS011;30789;52.030;7.110;2022-11-20T14:23:23;19.63;;;12.88;;
34960;SDS011;30789;52.030;7.110;2022-11-20T14:25:50;26.83;;;14.25;;
34960;SDS011;30789;52.030;7.110;2022-11-20T14:28:19;22.75;;;12.93;;
34960;SDS011;30789;52.030;7.110;2022-11-20T14:30:52;22.65;;;13.50;;
34960;SDS011;30789;52.030;7.110;2022-11-20T14:33:19;23.00;;;12.80;;
34960;SDS011;30789;52.030;7.110;2022-11-20T14:35:50;21.88;;;12.40;;
34960;SDS011;30789;52.030;7.110;2022-11-20T14:38:19;21.05;;;13.50;;
34960;SDS011;30789;52.030;7.110;2022-11-20T14:40:48;21.58;;;13.02;;
34960;SDS011;30789;52.030;7.110;2022-11-20T14:43:19;28.38;;;14.15;;
34960;SDS011;30789;52.030;7.110;2022-11-20T14:45:49;24.52;;;12.93;;
34960;SDS011;30789;52.030;7.110;2022-11-20T14:48:25;23.50;;;12.25;;
34960;SDS011;30789;52.030;7.110;2022-11-20T14:53:25;20.38;;;11.95;;
34960;SDS011;30789;52.030;7.110;2022-11-20T14:55:56;24.65;;;12.70;;
34960;SDS011;30789;52.030;7.110;2022-11-20T14:58:25;21.42;;;12.25;;
34960;SDS011;30789;52.030;7.110;2022-11-20T15:00:53;19.27;;;11.95;;